createdAt,value
2018-03-17T00:01:54.894Z,96.56
2018-03-17T00:04:22.514Z,96.44
2018-03-17T00:06:50.077Z,96.19
2018-03-17T00:09:18.979Z,96.04
2018-03-17T00:11:46.660Z,95.99
2018-03-17T00:14:14.241Z,95.94
2018-03-17T00:16:41.827Z,95.77
2018-03-17T00:19:10.702Z,95.62
2018-03-17T00:21:38.262Z,95.49
2018-03-17T00:24:05.818Z,95.38
2018-03-17T00:26:33.449Z,95.18
2018-03-17T00:29:01.008Z,95.16
2018-03-17T00:31:28.579Z,94.86
2018-03-17T00:33:56.134Z,94.75
2018-03-17T00:36:23.709Z,94.77
2018-03-17T00:38:51.358Z,94.81
2018-03-17T00:41:19.292Z,94.81
2018-03-17T00:43:46.952Z,94.72
2018-03-17T00:46:14.529Z,94.79
2018-03-17T00:48:42.123Z,94.89
2018-03-17T00:51:09.702Z,94.99
2018-03-17T00:53:37.265Z,95.00
2018-03-17T00:56:04.827Z,94.98
2018-03-17T00:58:33.753Z,94.80
2018-03-17T01:01:01.338Z,94.46
2018-03-17T01:03:29.783Z,94.30
2018-03-17T01:08:31.298Z,93.49
2018-03-17T01:10:58.876Z,92.96
2018-03-17T01:13:26.420Z,92.62
2018-03-17T01:15:54.036Z,91.71
2018-03-17T01:18:21.621Z,91.95
2018-03-17T01:20:49.190Z,92.14
2018-03-17T01:23:16.775Z,92.30
2018-03-17T01:25:44.324Z,92.36
2018-03-17T01:28:11.914Z,92.82
2018-03-17T01:30:39.490Z,93.38
2018-03-17T01:33:07.180Z,93.82
2018-03-17T01:35:34.777Z,92.06
2018-03-17T01:38:02.390Z,91.52
2018-03-17T01:40:29.955Z,91.66
2018-03-17T01:42:57.549Z,92.31
2018-03-17T01:45:25.241Z,92.82
2018-03-17T01:47:52.842Z,92.84
2018-03-17T01:50:20.428Z,93.00
2018-03-17T01:52:48.017Z,92.83
2018-03-17T01:55:16.901Z,93.22
2018-03-17T01:57:44.467Z,93.47
2018-03-17T02:00:12.153Z,93.34
2018-03-17T02:02:39.713Z,93.39
2018-03-17T02:05:09.119Z,93.49
2018-03-17T02:07:36.932Z,93.71
2018-03-17T02:10:04.501Z,94.10
2018-03-17T02:12:32.067Z,93.78
2018-03-17T02:14:59.716Z,93.85
2018-03-17T02:17:27.257Z,93.90
2018-03-17T02:19:54.826Z,94.17
2018-03-17T02:22:22.447Z,94.41
2018-03-17T02:24:50.009Z,94.46
2018-03-17T02:27:18.100Z,94.48
2018-03-17T02:29:45.734Z,94.49
2018-03-17T02:32:13.296Z,92.73
2018-03-17T02:34:40.899Z,92.13
2018-03-17T02:37:08.870Z,92.34
2018-03-17T02:39:36.455Z,92.45
2018-03-17T02:42:04.082Z,92.55
2018-03-17T02:44:31.642Z,93.11
2018-03-17T02:46:59.200Z,93.48
2018-03-17T02:49:26.787Z,93.57
2018-03-17T02:51:54.365Z,93.82
2018-03-17T02:54:21.956Z,94.04
2018-03-17T02:56:49.507Z,94.24
2018-03-17T02:59:17.091Z,94.20
2018-03-17T03:01:44.673Z,94.34
2018-03-17T03:04:12.656Z,94.34
2018-03-17T03:06:40.239Z,94.34
2018-03-17T03:09:08.623Z,94.25
2018-03-17T03:11:36.212Z,94.26
2018-03-17T03:14:03.814Z,94.21
2018-03-17T03:16:31.393Z,94.07
2018-03-17T03:19:04.284Z,93.86
2018-03-17T03:21:32.943Z,92.90
2018-03-17T03:24:00.491Z,92.51
2018-03-17T03:26:28.073Z,92.27
2018-03-17T03:28:56.021Z,92.32
2018-03-17T03:31:40.321Z,92.17
2018-03-17T03:34:11.404Z,91.69
2018-03-17T03:36:38.993Z,91.97
2018-03-17T03:39:07.226Z,92.30
2018-03-17T03:41:34.850Z,92.35
2018-03-17T03:44:02.373Z,92.63
2018-03-17T03:46:29.952Z,92.91
2018-03-17T03:48:57.560Z,93.26
2018-03-17T03:51:25.202Z,93.24
2018-03-17T03:53:55.433Z,93.41
2018-03-17T03:56:23.584Z,93.55
2018-03-17T03:58:51.200Z,93.49
2018-03-17T04:01:18.806Z,93.58
2018-03-17T04:03:46.385Z,93.58
2018-03-17T04:06:14.092Z,93.69
2018-03-17T04:08:41.655Z,93.77
2018-03-17T04:11:09.972Z,93.30
2018-03-17T04:13:37.553Z,93.29
2018-03-17T04:16:05.121Z,93.35
2018-03-17T04:18:32.679Z,92.73
2018-03-17T04:23:51.271Z,92.10
2018-03-17T04:26:18.934Z,90.94
2018-03-17T04:28:46.695Z,90.68
2018-03-17T04:31:14.254Z,90.69
2018-03-17T04:33:41.828Z,90.86
2018-03-17T04:36:09.401Z,90.19
2018-03-17T04:41:10.204Z,89.95
2018-03-17T04:43:38.338Z,90.25
2018-03-17T04:46:05.920Z,90.41
2018-03-17T04:48:33.481Z,90.52
2018-03-17T04:51:01.060Z,91.07
2018-03-17T04:53:28.954Z,90.84
2018-03-17T04:55:56.531Z,91.28
2018-03-17T04:58:24.116Z,91.33
2018-03-17T05:00:51.689Z,91.10
2018-03-17T05:03:19.451Z,91.30
2018-03-17T05:05:47.055Z,91.59
2018-03-17T05:08:14.835Z,91.55
2018-03-17T05:10:42.446Z,91.25
2018-03-17T05:13:10.766Z,91.04
2018-03-17T05:15:38.573Z,91.58
2018-03-17T05:18:06.341Z,91.68
2018-03-17T05:20:34.173Z,91.01
2018-03-17T05:23:02.518Z,91.46
2018-03-17T05:25:30.750Z,91.04
2018-03-17T05:27:58.311Z,91.36
2018-03-17T05:30:25.912Z,91.49
2018-03-17T05:32:53.499Z,91.42
2018-03-17T05:35:21.067Z,92.08
2018-03-17T05:37:48.646Z,91.79
2018-03-17T05:40:16.250Z,91.94
2018-03-17T05:42:43.853Z,91.60
2018-03-17T05:45:11.952Z,91.72
2018-03-17T05:47:39.533Z,91.70
2018-03-17T05:50:07.154Z,91.23
2018-03-17T05:52:34.738Z,91.15
2018-03-17T05:55:02.319Z,90.76
2018-03-17T05:57:30.126Z,91.00
2018-03-17T05:59:57.690Z,90.76
2018-03-17T06:02:26.628Z,90.24
2018-03-17T06:04:54.196Z,90.17
2018-03-17T06:07:21.760Z,90.47
2018-03-17T06:09:49.363Z,90.70
2018-03-17T06:12:16.921Z,90.50
2018-03-17T06:14:44.499Z,89.99
2018-03-17T06:17:12.920Z,89.74
2018-03-17T06:19:40.531Z,89.44
2018-03-17T06:22:08.148Z,89.11
2018-03-17T06:24:35.713Z,89.48
2018-03-17T06:27:03.560Z,89.52
2018-03-17T06:29:32.702Z,89.47
2018-03-17T06:32:00.273Z,89.42
2018-03-17T06:34:27.834Z,89.54
2018-03-17T06:36:55.401Z,89.50
2018-03-17T06:39:23.495Z,89.38
2018-03-17T06:41:51.049Z,89.67
2018-03-17T06:44:18.615Z,88.98
2018-03-17T06:46:46.210Z,89.61
2018-03-17T06:49:13.870Z,89.83
2018-03-17T06:51:42.342Z,89.26
2018-03-17T06:54:10.058Z,88.18
2018-03-17T06:56:37.619Z,88.48
2018-03-17T06:59:05.201Z,88.30
2018-03-17T07:01:35.862Z,88.59
2018-03-17T07:04:03.689Z,87.54
2018-03-17T07:06:31.243Z,88.12
2018-03-17T07:08:58.871Z,88.16
2018-03-17T07:11:26.716Z,87.50
2018-03-17T07:13:54.280Z,87.36
2018-03-17T07:16:21.870Z,87.09
2018-03-17T07:18:49.475Z,87.11
2018-03-17T07:21:17.041Z,87.21
2018-03-17T07:23:44.888Z,86.92
2018-03-17T07:26:12.521Z,87.24
2018-03-17T07:28:40.243Z,87.36
2018-03-17T07:31:08.354Z,87.67
2018-03-17T07:33:35.942Z,88.14
2018-03-17T07:36:04.874Z,88.02
2018-03-17T07:38:33.785Z,87.76
2018-03-17T07:41:01.343Z,87.25
2018-03-17T07:43:29.459Z,87.77
2018-03-17T07:45:57.121Z,86.89
2018-03-17T07:48:24.681Z,86.08
2018-03-17T07:50:52.250Z,86.09
2018-03-17T07:53:22.158Z,86.46
2018-03-17T07:55:49.788Z,87.84
2018-03-17T07:58:17.350Z,87.75
2018-03-17T08:00:44.941Z,86.32
2018-03-17T08:03:13.907Z,86.24
2018-03-17T08:05:41.491Z,86.20
2018-03-17T08:08:09.232Z,85.71
2018-03-17T08:10:36.805Z,84.90
2018-03-17T08:13:04.463Z,85.29
2018-03-17T08:15:32.802Z,85.94
2018-03-17T08:18:00.371Z,86.32
2018-03-17T08:20:29.261Z,85.54
2018-03-17T08:22:56.850Z,85.80
2018-03-17T08:25:24.615Z,85.69
2018-03-17T08:27:52.199Z,85.72
2018-03-17T08:30:19.998Z,85.55
2018-03-17T08:32:47.568Z,85.47
2018-03-17T08:35:15.136Z,85.10
2018-03-17T08:37:42.705Z,85.11
2018-03-17T08:40:10.281Z,84.45
2018-03-17T08:42:37.847Z,85.01
2018-03-17T08:45:05.656Z,84.51
2018-03-17T08:47:33.227Z,84.35
2018-03-17T08:50:00.805Z,84.33
2018-03-17T08:52:28.399Z,84.47
2018-03-17T08:54:55.978Z,84.72
2018-03-17T08:57:23.578Z,84.19
2018-03-17T08:59:51.196Z,83.69
2018-03-17T09:02:18.763Z,84.53
2018-03-17T09:04:46.314Z,84.14
2018-03-17T09:07:13.870Z,85.01
2018-03-17T09:09:41.491Z,84.84
2018-03-17T09:12:09.138Z,84.45
2018-03-17T09:14:36.664Z,83.26
2018-03-17T09:17:04.289Z,82.58
2018-03-17T09:19:31.864Z,82.51
2018-03-17T09:21:59.430Z,83.09
2018-03-17T09:24:27.335Z,84.15
2018-03-17T09:26:54.912Z,84.13
2018-03-17T09:29:24.232Z,84.12
2018-03-17T09:31:51.822Z,83.41
2018-03-17T09:34:19.448Z,83.28
2018-03-17T09:36:47.006Z,82.66
2018-03-17T09:39:15.454Z,82.65
2018-03-17T09:41:43.043Z,82.93
2018-03-17T09:44:10.834Z,84.05
2018-03-17T09:46:38.412Z,83.65
2018-03-17T09:49:06.397Z,82.83
2018-03-17T09:51:33.958Z,83.13
2018-03-17T09:54:01.536Z,82.66
2018-03-17T09:56:29.133Z,82.86
2018-03-17T09:58:56.764Z,82.86
2018-03-17T10:01:25.207Z,82.89
2018-03-17T10:03:52.770Z,83.38
2018-03-17T10:06:20.370Z,83.48
2018-03-17T10:08:47.920Z,83.25
2018-03-17T10:11:15.483Z,82.89
2018-03-17T10:13:43.061Z,82.64
2018-03-17T10:16:10.632Z,82.88
2018-03-17T10:18:38.245Z,81.89
2018-03-17T10:21:06.203Z,83.02
2018-03-17T10:23:33.796Z,82.97
2018-03-17T10:26:01.369Z,83.01
2018-03-17T10:28:29.025Z,82.61
2018-03-17T10:30:56.607Z,82.66
2018-03-17T10:33:24.263Z,82.64
2018-03-17T10:35:52.048Z,82.20
2018-03-17T10:38:19.662Z,82.39
2018-03-17T10:40:47.300Z,82.32
2018-03-17T10:43:14.915Z,82.24
2018-03-17T10:45:42.489Z,82.33
2018-03-17T10:48:10.269Z,82.31
2018-03-17T10:50:37.844Z,82.48
2018-03-17T10:53:05.481Z,82.60
2018-03-17T10:55:33.203Z,82.78
2018-03-17T10:58:00.794Z,83.26
2018-03-17T11:00:28.394Z,82.45
2018-03-17T11:02:56.008Z,82.28
2018-03-17T11:05:26.473Z,81.59
2018-03-17T11:07:54.134Z,81.13
2018-03-17T11:10:27.634Z,80.82
2018-03-17T11:12:55.221Z,81.14
2018-03-17T11:15:25.685Z,81.46
2018-03-17T11:17:53.598Z,81.20
2018-03-17T11:20:21.391Z,81.76
2018-03-17T11:22:48.960Z,81.30
2018-03-17T11:25:16.595Z,82.16
2018-03-17T11:27:48.812Z,82.21
2018-03-17T11:30:16.665Z,82.68
2018-03-17T11:32:44.297Z,82.97
2018-03-17T11:35:16.340Z,83.36
2018-03-17T11:37:44.632Z,83.54
2018-03-17T11:40:12.197Z,83.97
2018-03-17T11:42:39.772Z,83.97
2018-03-17T11:45:08.383Z,84.67
2018-03-17T11:47:38.287Z,84.22
2018-03-17T11:50:06.671Z,84.93
2018-03-17T11:52:34.243Z,85.12
2018-03-17T11:55:01.858Z,85.03
2018-03-17T11:57:29.753Z,84.19
2018-03-17T11:59:57.309Z,83.58
2018-03-17T12:02:24.885Z,83.88
2018-03-17T12:04:52.473Z,83.97
2018-03-17T12:07:20.086Z,84.19
2018-03-17T12:09:47.709Z,84.14
2018-03-17T12:12:15.426Z,84.42
2018-03-17T12:14:42.989Z,84.08
2018-03-17T12:17:10.896Z,83.44
2018-03-17T12:19:38.661Z,83.15
2018-03-17T12:22:06.225Z,83.17
2018-03-17T12:24:33.803Z,82.40
2018-03-17T12:27:01.351Z,81.81
2018-03-17T12:29:30.666Z,81.06
2018-03-17T12:31:58.254Z,80.90
2018-03-17T12:34:25.809Z,80.78
2018-03-17T12:36:53.430Z,79.25
2018-03-17T12:39:21.012Z,78.69
2018-03-17T12:41:48.559Z,77.74
2018-03-17T12:44:16.113Z,77.90
2018-03-17T12:46:43.691Z,77.25
2018-03-17T12:49:12.187Z,78.14
2018-03-17T12:51:39.790Z,78.44
2018-03-17T12:54:07.345Z,78.30
2018-03-17T12:56:34.936Z,78.89
2018-03-17T12:59:02.466Z,79.79
2018-03-17T13:01:30.060Z,77.85
2018-03-17T13:03:57.597Z,78.96
2018-03-17T13:06:27.956Z,78.28
2018-03-17T13:08:55.464Z,78.24
2018-03-17T13:11:23.065Z,78.19
2018-03-17T13:13:50.654Z,77.26
2018-03-17T13:16:18.216Z,77.35
2018-03-17T13:18:45.824Z,77.35
2018-03-17T13:21:13.624Z,78.62
2018-03-17T13:23:41.950Z,77.10
2018-03-17T13:26:09.877Z,78.28
2018-03-17T13:28:37.448Z,76.93
2018-03-17T13:31:05.180Z,78.27
2018-03-17T13:33:32.787Z,77.27
2018-03-17T13:36:12.061Z,76.53
2018-03-17T13:38:39.663Z,76.46
2018-03-17T13:41:07.702Z,78.08
2018-03-17T13:43:35.349Z,76.50
2018-03-17T13:46:02.909Z,76.64
2018-03-17T13:48:30.520Z,76.74
2018-03-17T13:50:58.143Z,76.24
2018-03-17T13:53:25.707Z,76.37
2018-03-17T13:55:53.281Z,77.71
2018-03-17T13:58:22.180Z,76.75
2018-03-17T14:00:49.733Z,76.58
2018-03-17T14:03:17.994Z,77.06
2018-03-17T14:05:45.906Z,78.12
2018-03-17T14:08:13.468Z,79.25
2018-03-17T14:10:41.029Z,78.51
2018-03-17T14:13:09.358Z,78.34
2018-03-17T14:15:37.742Z,78.15
2018-03-17T14:18:05.660Z,79.12
2018-03-17T14:20:33.237Z,79.39
2018-03-17T14:23:00.874Z,78.97
2018-03-17T14:25:28.502Z,78.65
2018-03-17T14:27:56.084Z,79.03
2018-03-17T14:30:23.683Z,80.22
2018-03-17T14:32:51.287Z,79.68
2018-03-17T14:35:19.070Z,78.45
2018-03-17T14:37:46.675Z,78.55
2018-03-17T14:40:14.254Z,78.53
2018-03-17T14:42:41.875Z,78.16
2018-03-17T14:45:09.643Z,79.58
2018-03-17T14:47:37.220Z,78.61
2018-03-17T14:50:04.814Z,78.36
2018-03-17T14:52:32.386Z,78.34
2018-03-17T14:55:00.011Z,78.80
2018-03-17T14:57:28.632Z,78.35
2018-03-17T14:59:56.234Z,79.76
2018-03-17T15:02:23.847Z,80.08
2018-03-17T15:04:51.440Z,79.33
2018-03-17T15:07:20.044Z,78.66
2018-03-17T15:09:49.508Z,79.80
2018-03-17T15:12:17.183Z,79.07
2018-03-17T15:14:44.837Z,80.18
2018-03-17T15:17:12.714Z,79.88
2018-03-17T15:19:40.298Z,78.30
2018-03-17T15:22:07.848Z,77.91
2018-03-17T15:24:38.294Z,77.36
2018-03-17T15:27:07.618Z,77.00
2018-03-17T15:29:35.271Z,77.73
2018-03-17T15:32:07.567Z,78.13
2018-03-17T15:34:35.390Z,78.43
2018-03-17T15:37:02.985Z,78.49
2018-03-17T15:39:33.025Z,78.15
2018-03-17T15:42:00.634Z,79.38
2018-03-17T15:44:28.376Z,78.74
2018-03-17T15:46:56.549Z,78.04
2018-03-17T15:49:24.594Z,79.19
2018-03-17T15:51:52.200Z,78.11
2018-03-17T15:54:19.822Z,78.18
2018-03-17T15:56:54.309Z,78.34
2018-03-17T15:59:21.908Z,78.16
2018-03-17T16:01:50.126Z,78.51
2018-03-17T16:04:17.747Z,78.90
2018-03-17T16:06:45.341Z,78.63
2018-03-17T16:09:13.313Z,77.70
2018-03-17T16:11:40.883Z,78.92
2018-03-17T16:14:08.638Z,79.10
2018-03-17T16:16:36.222Z,78.64
2018-03-17T16:19:03.856Z,80.00
2018-03-17T16:21:31.635Z,80.66
2018-03-17T16:23:59.265Z,79.21
2018-03-17T16:26:26.848Z,79.71
2018-03-17T16:28:54.433Z,79.78
2018-03-17T16:31:22.045Z,79.20
2018-03-17T16:33:49.626Z,78.95
2018-03-17T16:36:17.194Z,78.88
2018-03-17T16:38:44.790Z,77.84
2018-03-17T16:41:12.964Z,79.57
2018-03-17T16:43:40.535Z,79.17
2018-03-17T16:46:08.231Z,79.50
2018-03-17T16:48:38.249Z,79.21
2018-03-17T16:51:06.557Z,79.43
2018-03-17T16:53:34.175Z,79.98
2018-03-17T16:56:01.755Z,79.58
2018-03-17T16:58:29.368Z,78.82
2018-03-17T17:00:56.956Z,79.30
2018-03-17T17:03:25.912Z,78.05
2018-03-17T17:05:53.677Z,78.63
2018-03-17T17:08:21.312Z,78.76
2018-03-17T17:10:48.928Z,78.54
2018-03-17T17:13:16.523Z,79.13
2018-03-17T17:15:44.156Z,79.13
2018-03-17T17:18:11.747Z,79.77
2018-03-17T17:20:39.413Z,79.95
2018-03-17T17:23:07.388Z,80.19
2018-03-17T17:25:35.043Z,80.25
2018-03-17T17:28:02.656Z,79.33
2018-03-17T17:30:30.245Z,79.61
2018-03-17T17:32:57.864Z,78.95
2018-03-17T17:35:25.956Z,78.98
2018-03-17T17:37:53.739Z,78.93
2018-03-17T17:40:21.308Z,78.99
2018-03-17T17:42:48.954Z,77.90
2018-03-17T17:45:16.624Z,77.77
2018-03-17T17:47:45.196Z,77.93
2018-03-17T17:50:15.729Z,78.66
2018-03-17T17:52:47.608Z,78.56
2018-03-17T17:55:15.401Z,79.38
2018-03-17T17:57:43.098Z,79.40
2018-03-17T18:00:10.669Z,80.03
2018-03-17T18:02:38.254Z,77.95
2018-03-17T18:05:05.843Z,77.02
2018-03-17T18:07:33.434Z,78.64
2018-03-17T18:10:01.012Z,78.98
2018-03-17T18:12:28.591Z,77.05
2018-03-17T18:14:56.184Z,77.55
2018-03-17T18:17:23.784Z,75.61
2018-03-17T18:19:51.445Z,77.23
2018-03-17T18:22:19.421Z,77.09
2018-03-17T18:24:47.080Z,76.39
2018-03-17T18:27:14.652Z,75.75
2018-03-17T18:29:42.254Z,76.78
2018-03-17T18:32:10.264Z,78.60
2018-03-17T18:34:37.854Z,77.37
2018-03-17T18:37:05.875Z,76.96
2018-03-17T18:39:33.464Z,78.19
2018-03-17T18:42:01.095Z,78.21
2018-03-17T18:44:28.665Z,77.79
2018-03-17T18:46:56.300Z,77.45
2018-03-17T18:49:24.918Z,76.93
2018-03-17T18:51:52.624Z,75.44
2018-03-17T18:54:20.227Z,76.55
2018-03-17T18:56:47.834Z,76.74
2018-03-17T18:59:15.453Z,77.02
2018-03-17T19:01:43.304Z,75.68
2018-03-17T19:04:10.883Z,76.58
2018-03-17T19:06:39.063Z,76.74
2018-03-17T19:09:06.845Z,77.42
2018-03-17T19:11:34.514Z,77.61
2018-03-17T19:14:02.141Z,76.79
2018-03-17T19:16:29.702Z,77.04
2018-03-17T19:18:58.809Z,77.34
2018-03-17T19:21:26.760Z,78.44
2018-03-17T19:23:58.495Z,77.23
2018-03-17T19:26:26.097Z,78.59
2018-03-17T19:28:53.636Z,79.31
2018-03-17T19:31:21.257Z,79.88
2018-03-17T19:33:48.869Z,80.70
2018-03-17T19:36:18.972Z,81.00
2018-03-17T19:38:46.711Z,81.47
2018-03-17T19:41:17.002Z,81.15
2018-03-17T19:43:45.343Z,81.96
2018-03-17T19:46:12.926Z,82.89
2018-03-17T19:48:41.397Z,83.43
2018-03-17T19:51:09.603Z,83.02
2018-03-17T19:53:38.327Z,82.39
2018-03-17T19:56:14.288Z,82.61
2018-03-17T19:58:43.971Z,81.73
2018-03-17T20:01:12.460Z,82.80
2018-03-17T20:03:40.035Z,83.52
2018-03-17T20:06:07.618Z,82.72
2018-03-17T20:08:35.190Z,83.61
2018-03-17T20:11:02.806Z,84.14
2018-03-17T20:13:30.608Z,84.28
2018-03-17T20:15:58.181Z,84.06
2018-03-17T20:18:25.821Z,84.51
2018-03-17T20:20:53.411Z,85.08
2018-03-17T20:23:20.967Z,84.26
2018-03-17T20:25:48.793Z,84.47
2018-03-17T20:28:16.366Z,84.34
2018-03-17T20:30:43.950Z,84.25
2018-03-17T20:33:11.923Z,84.41
2018-03-17T20:35:39.546Z,84.58
2018-03-17T20:38:07.109Z,84.36
2018-03-17T20:40:34.710Z,83.64
2018-03-17T20:43:02.289Z,84.00
2018-03-17T20:45:30.110Z,84.24
2018-03-17T20:47:57.747Z,82.50
2018-03-17T20:50:25.337Z,82.75
2018-03-17T20:52:52.938Z,83.30
2018-03-17T20:55:20.603Z,82.21
2018-03-17T20:57:48.220Z,82.67
2018-03-17T21:00:15.922Z,82.73
2018-03-17T21:02:43.538Z,83.55
2018-03-17T21:05:12.587Z,83.44
2018-03-17T21:07:40.405Z,82.48
2018-03-17T21:10:07.995Z,82.14
2018-03-17T21:12:35.594Z,81.76
2018-03-17T21:15:03.213Z,81.70
2018-03-17T21:17:31.268Z,81.70
2018-03-17T21:19:58.872Z,81.75
2018-03-17T21:22:26.521Z,82.34
2018-03-17T21:24:54.132Z,82.42
2018-03-17T21:27:21.709Z,82.77
2018-03-17T21:29:49.450Z,82.83
2018-03-17T21:32:17.016Z,83.07
2018-03-17T21:34:44.656Z,82.63
2018-03-17T21:37:12.988Z,83.15
2018-03-17T21:39:40.617Z,83.09
2018-03-17T21:42:08.320Z,82.42
2018-03-17T21:44:35.958Z,82.93
2018-03-17T21:47:03.779Z,82.06
2018-03-17T21:49:31.702Z,81.13
2018-03-17T21:51:59.329Z,79.37
2018-03-17T21:54:26.978Z,78.75
2018-03-17T21:56:54.718Z,79.10
2018-03-17T21:59:22.338Z,80.60
2018-03-17T22:01:51.279Z,81.36
2018-03-17T22:04:19.050Z,79.77
2018-03-17T22:06:46.753Z,78.02
2018-03-17T22:09:14.660Z,77.66
2018-03-17T22:11:42.308Z,77.40
2018-03-17T22:14:10.403Z,78.48
2018-03-17T22:16:38.224Z,76.89
2018-03-17T22:19:07.115Z,76.75
2018-03-17T22:21:35.039Z,77.12
2018-03-17T22:24:02.604Z,77.66
2018-03-17T22:26:30.213Z,77.94
2018-03-17T22:28:57.822Z,79.11
2018-03-17T22:31:25.518Z,77.41
2018-03-17T22:33:53.310Z,78.64
2018-03-17T22:36:20.959Z,77.91
2018-03-17T22:38:48.556Z,77.44
2018-03-17T22:41:17.422Z,78.15
2018-03-17T22:43:45.175Z,78.23
2018-03-17T22:46:12.872Z,78.23
2018-03-17T22:48:40.786Z,76.97
2018-03-17T22:51:08.510Z,76.65
2018-03-17T22:53:36.398Z,78.00
2018-03-17T22:56:03.975Z,77.51
2018-03-17T22:58:31.596Z,77.86
2018-03-17T23:00:59.216Z,78.78
2018-03-17T23:03:26.903Z,77.90
2018-03-17T23:05:54.517Z,78.41
2018-03-17T23:08:23.002Z,79.68
2018-03-17T23:10:50.783Z,79.91
2018-03-17T23:13:18.845Z,79.14
2018-03-17T23:15:46.433Z,78.90
2018-03-17T23:18:14.039Z,79.14
2018-03-17T23:20:43.688Z,78.89
2018-03-17T23:23:12.312Z,78.91
2018-03-17T23:25:39.887Z,78.86
2018-03-17T23:28:07.492Z,77.99
2018-03-17T23:30:35.116Z,79.28
2018-03-17T23:33:02.756Z,79.32
2018-03-17T23:35:30.769Z,79.21
2018-03-17T23:37:58.350Z,80.31
2018-03-17T23:40:29.213Z,80.15
2018-03-17T23:42:56.871Z,79.70
2018-03-17T23:45:24.610Z,80.32
2018-03-17T23:47:52.235Z,79.12
2018-03-17T23:50:20.016Z,78.90
2018-03-17T23:52:49.223Z,78.43
2018-03-17T23:55:18.843Z,78.80
2018-03-17T23:57:46.421Z,78.48
